createdAt,value
2019-03-16T00:01:27.059Z,6.97
2019-03-16T00:03:54.077Z,10.60
2019-03-16T00:06:20.810Z,7.13
2019-03-16T00:08:47.676Z,9.50
2019-03-16T00:11:14.467Z,7.30
2019-03-16T00:13:41.106Z,9.50
2019-03-16T00:16:07.903Z,8.10
2019-03-16T00:18:34.646Z,7.90
2019-03-16T00:21:01.587Z,7.70
2019-03-16T00:23:28.464Z,8.97
2019-03-16T00:25:55.208Z,9.63
2019-03-16T00:28:22.094Z,7.90
2019-03-16T00:30:48.884Z,7.07
2019-03-16T00:33:15.626Z,8.00
2019-03-16T00:35:42.367Z,8.90
2019-03-16T00:38:09.304Z,7.10
2019-03-16T00:40:36.062Z,5.40
2019-03-16T00:43:02.895Z,11.20
2019-03-16T00:45:29.784Z,8.80
2019-03-16T00:47:56.801Z,8.67
2019-03-16T00:50:23.539Z,9.40
2019-03-16T00:52:50.335Z,7.90
2019-03-16T00:55:17.097Z,13.87
2019-03-16T00:57:43.834Z,7.63
2019-03-16T01:00:30.346Z,9.80
2019-03-16T01:02:56.989Z,11.73
2019-03-16T01:05:23.731Z,8.87
2019-03-16T01:07:50.601Z,9.17
2019-03-16T01:10:17.335Z,9.70
2019-03-16T01:12:44.141Z,12.00
2019-03-16T01:15:11.046Z,11.00
2019-03-16T01:17:37.794Z,14.93
2019-03-16T01:20:04.889Z,10.80
2019-03-16T01:22:31.790Z,13.07
2019-03-16T01:24:58.535Z,16.43
2019-03-16T01:27:25.279Z,12.37
2019-03-16T01:29:52.153Z,16.67
2019-03-16T01:32:19.175Z,12.00
2019-03-16T01:34:46.247Z,13.80
2019-03-16T01:37:13.153Z,7.27
2019-03-16T01:39:39.882Z,12.57
2019-03-16T01:42:06.612Z,13.73
2019-03-16T01:44:33.477Z,10.03
2019-03-16T01:47:00.404Z,13.63
2019-03-16T01:49:27.097Z,11.90
2019-03-16T01:51:54.472Z,10.47
2019-03-16T01:54:21.504Z,11.93
2019-03-16T01:56:48.242Z,8.53
2019-03-16T01:59:14.946Z,12.73
2019-03-16T02:01:41.705Z,12.07
2019-03-16T02:04:08.454Z,13.13
2019-03-16T02:06:35.251Z,9.93
2019-03-16T02:09:02.283Z,9.67
2019-03-16T02:11:29.015Z,10.50
2019-03-16T02:13:55.927Z,8.73
2019-03-16T02:16:22.939Z,11.20
2019-03-16T02:18:49.679Z,8.43
2019-03-16T02:21:16.495Z,11.70
2019-03-16T02:23:43.257Z,10.50
2019-03-16T02:26:10.101Z,9.00
2019-03-16T02:28:36.910Z,9.00
2019-03-16T02:31:03.750Z,9.63
2019-03-16T02:33:30.486Z,9.73
2019-03-16T02:35:57.323Z,10.53
2019-03-16T02:38:24.150Z,8.80
2019-03-16T02:40:50.889Z,12.97
2019-03-16T02:43:17.708Z,11.67
2019-03-16T02:45:44.460Z,11.53
2019-03-16T02:48:11.200Z,12.43
2019-03-16T02:50:38.081Z,10.60
2019-03-16T02:53:04.823Z,10.87
2019-03-16T02:55:31.570Z,11.43
2019-03-16T02:57:59.119Z,13.40
2019-03-16T03:00:26.030Z,12.40
2019-03-16T03:02:52.797Z,10.20
2019-03-16T03:05:19.667Z,11.10
2019-03-16T03:07:46.562Z,12.10
2019-03-16T03:10:13.428Z,5.70
2019-03-16T03:12:40.230Z,9.27
2019-03-16T03:15:19.955Z,8.67
2019-03-16T03:17:47.151Z,13.47
2019-03-16T03:20:14.285Z,12.97
2019-03-16T03:22:41.362Z,9.13
2019-03-16T03:25:08.706Z,11.70
2019-03-16T03:27:35.830Z,9.97
2019-03-16T03:30:03.133Z,14.27
2019-03-16T03:32:30.337Z,9.93
2019-03-16T03:34:57.803Z,13.87
2019-03-16T03:37:24.847Z,15.40
2019-03-16T03:39:52.232Z,10.23
2019-03-16T03:42:19.441Z,14.83
2019-03-16T03:44:46.560Z,13.80
2019-03-16T03:47:13.766Z,12.63
2019-03-16T03:49:40.954Z,14.47
2019-03-16T03:52:08.102Z,10.10
2019-03-16T03:54:35.200Z,10.73
2019-03-16T03:57:02.261Z,13.10
2019-03-16T03:59:29.326Z,11.80
2019-03-16T04:01:57.077Z,9.73
2019-03-16T04:04:24.175Z,12.13
2019-03-16T04:06:51.626Z,12.90
2019-03-16T04:09:39.955Z,11.97
2019-03-16T04:12:06.698Z,10.43
2019-03-16T04:14:33.447Z,9.20
2019-03-16T04:17:00.274Z,12.67
2019-03-16T04:19:27.141Z,9.13
2019-03-16T04:21:53.889Z,9.27
2019-03-16T04:24:20.701Z,9.97
2019-03-16T04:26:47.477Z,14.03
2019-03-16T04:29:14.317Z,9.47
2019-03-16T04:31:41.021Z,14.00
2019-03-16T04:34:07.781Z,7.33
2019-03-16T04:36:34.492Z,13.43
2019-03-16T04:39:01.357Z,10.90
2019-03-16T04:41:28.095Z,11.97
2019-03-16T04:43:54.818Z,10.00
2019-03-16T04:46:21.898Z,14.10
2019-03-16T04:48:48.637Z,10.00
2019-03-16T04:51:15.650Z,7.30
2019-03-16T04:53:42.518Z,8.87
2019-03-16T04:56:09.259Z,9.13
2019-03-16T04:58:36.366Z,8.90
2019-03-16T05:01:03.589Z,14.93
2019-03-16T05:03:30.235Z,13.77
2019-03-16T05:05:57.088Z,15.70
2019-03-16T05:08:23.995Z,10.93
2019-03-16T05:10:50.741Z,10.43
2019-03-16T05:13:37.390Z,9.27
2019-03-16T05:16:04.138Z,12.73
2019-03-16T05:18:30.937Z,11.43
2019-03-16T05:20:58.106Z,15.03
2019-03-16T05:23:24.747Z,15.87
2019-03-16T05:25:51.487Z,9.83
2019-03-16T05:28:18.320Z,8.77
2019-03-16T05:30:45.000Z,13.17
2019-03-16T05:33:11.734Z,12.40
2019-03-16T05:35:38.607Z,14.50
2019-03-16T05:38:05.722Z,11.27
2019-03-16T05:40:32.555Z,14.37
2019-03-16T05:42:59.458Z,9.00
2019-03-16T05:45:26.573Z,14.63
2019-03-16T05:47:53.562Z,16.93
2019-03-16T05:50:20.892Z,10.40
2019-03-16T05:52:47.642Z,11.60
2019-03-16T05:55:14.412Z,15.17
2019-03-16T05:57:43.561Z,11.87
2019-03-16T06:00:10.717Z,16.77
2019-03-16T06:02:37.721Z,10.20
2019-03-16T06:05:10.410Z,14.80
2019-03-16T06:07:33.920Z,12.17
2019-03-16T06:10:01.815Z,9.90
2019-03-16T06:12:29.179Z,11.10
2019-03-16T06:14:56.337Z,9.57
2019-03-16T06:17:23.435Z,10.43
2019-03-16T06:19:50.700Z,9.27
2019-03-16T06:22:17.760Z,13.13
2019-03-16T06:24:44.821Z,15.73
2019-03-16T06:27:11.968Z,13.07
2019-03-16T06:29:39.076Z,11.40
2019-03-16T06:32:06.156Z,13.00
2019-03-16T06:34:33.347Z,13.37
2019-03-16T06:37:00.491Z,10.53
2019-03-16T06:39:27.560Z,12.03
2019-03-16T06:41:54.737Z,10.57
2019-03-16T06:44:21.815Z,9.27
2019-03-16T06:46:49.233Z,11.30
2019-03-16T06:49:16.418Z,10.03
2019-03-16T06:51:43.494Z,11.60
2019-03-16T06:54:10.541Z,13.57
2019-03-16T06:56:38.024Z,9.37
2019-03-16T06:59:05.090Z,9.07
2019-03-16T07:01:32.221Z,11.73
2019-03-16T07:03:59.435Z,12.13
2019-03-16T07:06:26.491Z,11.80
2019-03-16T07:08:53.548Z,11.57
2019-03-16T07:11:39.852Z,13.30
2019-03-16T07:14:06.608Z,10.73
2019-03-16T07:16:33.354Z,12.10
2019-03-16T07:19:00.533Z,9.10
2019-03-16T07:21:39.922Z,13.77
2019-03-16T07:24:06.833Z,11.03
2019-03-16T07:26:33.965Z,10.47
2019-03-16T07:29:00.848Z,11.80
2019-03-16T07:31:27.665Z,15.83
2019-03-16T07:33:54.409Z,12.23
2019-03-16T07:36:21.148Z,11.37
2019-03-16T07:38:48.024Z,10.50
2019-03-16T07:41:15.401Z,10.33
2019-03-16T07:43:42.278Z,9.77
2019-03-16T07:46:28.725Z,13.27
2019-03-16T07:48:55.459Z,9.13
2019-03-16T07:51:22.232Z,13.50
2019-03-16T07:53:49.033Z,15.13
2019-03-16T07:56:15.761Z,13.70
2019-03-16T07:58:42.495Z,11.80
2019-03-16T08:01:09.307Z,10.63
2019-03-16T08:03:36.392Z,8.87
2019-03-16T08:06:03.351Z,14.10
2019-03-16T08:08:30.161Z,8.80
2019-03-16T08:10:56.909Z,11.50
2019-03-16T08:13:23.667Z,10.30
2019-03-16T08:15:50.530Z,10.67
2019-03-16T08:18:17.159Z,14.60
2019-03-16T08:20:44.228Z,11.07
2019-03-16T08:23:10.967Z,13.13
2019-03-16T08:25:37.615Z,14.70
2019-03-16T08:28:04.749Z,11.27
2019-03-16T08:30:31.656Z,10.27
2019-03-16T08:32:58.391Z,9.57
2019-03-16T08:35:25.116Z,8.83
2019-03-16T08:37:51.985Z,12.50
2019-03-16T08:40:18.719Z,7.83
2019-03-16T08:42:45.464Z,10.73
2019-03-16T08:45:12.395Z,11.40
2019-03-16T08:47:39.168Z,12.07
2019-03-16T08:50:06.010Z,8.67
2019-03-16T08:52:32.808Z,9.57
2019-03-16T08:54:59.869Z,11.00
2019-03-16T08:57:26.602Z,9.07
2019-03-16T08:59:53.412Z,7.80
2019-03-16T09:02:20.143Z,14.70
2019-03-16T09:04:47.054Z,7.47
2019-03-16T09:07:13.950Z,12.47
2019-03-16T09:10:00.599Z,10.20
2019-03-16T09:12:27.382Z,8.83
2019-03-16T09:14:54.130Z,13.27
2019-03-16T09:17:20.766Z,11.40
2019-03-16T09:19:47.599Z,14.17
2019-03-16T09:22:14.476Z,11.57
2019-03-16T09:24:41.566Z,10.53
2019-03-16T09:27:08.266Z,10.70
2019-03-16T09:29:35.373Z,12.87
2019-03-16T09:32:02.469Z,9.03
2019-03-16T09:34:29.152Z,10.40
2019-03-16T09:36:55.924Z,8.97
2019-03-16T09:39:23.175Z,9.17
2019-03-16T09:41:50.051Z,13.07
2019-03-16T09:44:16.783Z,12.57
2019-03-16T09:46:43.533Z,11.90
2019-03-16T09:49:10.352Z,13.10
2019-03-16T09:51:37.457Z,9.23
2019-03-16T09:54:04.608Z,8.83
2019-03-16T09:56:31.502Z,8.40
2019-03-16T09:58:58.426Z,12.00
2019-03-16T10:01:25.271Z,13.27
2019-03-16T10:03:52.268Z,12.37
2019-03-16T10:06:19.103Z,10.27
2019-03-16T10:08:46.152Z,8.77
2019-03-16T10:11:12.966Z,12.00
2019-03-16T10:13:39.778Z,8.17
2019-03-16T10:16:06.514Z,9.37
2019-03-16T10:18:33.371Z,12.40
2019-03-16T10:21:00.280Z,13.40
2019-03-16T10:23:27.109Z,6.37
2019-03-16T10:26:06.848Z,9.63
2019-03-16T10:28:43.143Z,10.67
2019-03-16T10:31:02.789Z,9.27
2019-03-16T10:33:29.496Z,10.67
2019-03-16T10:35:56.121Z,9.13
2019-03-16T10:38:22.856Z,8.57
2019-03-16T10:40:49.928Z,6.07
2019-03-16T10:43:16.661Z,9.87
2019-03-16T10:46:03.147Z,9.43
2019-03-16T10:48:30.019Z,6.97
2019-03-16T10:50:56.886Z,4.77
2019-03-16T10:53:24.026Z,9.63
2019-03-16T10:55:50.912Z,7.73
2019-03-16T10:58:17.704Z,6.47
2019-03-16T11:00:44.697Z,6.07
2019-03-16T11:03:11.427Z,5.87
2019-03-16T11:05:38.459Z,3.80
2019-03-16T11:08:05.270Z,4.20
2019-03-16T11:10:32.013Z,4.93
2019-03-16T11:12:58.666Z,5.47
2019-03-16T11:15:25.769Z,4.80
2019-03-16T11:17:52.831Z,3.73
2019-03-16T11:20:19.712Z,4.07
2019-03-16T11:22:47.262Z,4.70
2019-03-16T11:25:14.367Z,3.87
2019-03-16T11:27:41.069Z,4.00
2019-03-16T11:30:09.216Z,4.27
2019-03-16T11:32:36.236Z,4.50
2019-03-16T11:35:03.245Z,3.07
2019-03-16T11:37:29.940Z,4.27
2019-03-16T11:40:06.764Z,5.33
2019-03-16T11:42:33.902Z,3.67
2019-03-16T11:45:00.971Z,4.83
2019-03-16T11:47:28.354Z,5.67
2019-03-16T11:49:55.574Z,5.70
2019-03-16T11:52:22.939Z,4.37
2019-03-16T11:54:50.028Z,3.83
2019-03-16T11:57:18.708Z,4.43
2019-03-16T11:59:45.786Z,4.33
2019-03-16T12:02:12.881Z,4.63
2019-03-16T12:04:40.036Z,5.93
2019-03-16T12:07:07.428Z,6.33
2019-03-16T12:09:34.499Z,6.00
2019-03-16T12:12:02.654Z,5.50
2019-03-16T12:14:29.724Z,4.70
2019-03-16T12:16:57.193Z,5.13
2019-03-16T12:19:24.366Z,4.60
2019-03-16T12:21:51.452Z,4.73
2019-03-16T12:24:18.609Z,5.33
2019-03-16T12:26:45.855Z,4.50
2019-03-16T12:29:13.284Z,5.17
2019-03-16T12:31:40.380Z,5.67
2019-03-16T12:34:27.033Z,5.13
2019-03-16T12:36:54.111Z,5.90
2019-03-16T12:39:21.613Z,4.80
2019-03-16T12:41:48.881Z,4.93
2019-03-16T12:44:15.921Z,6.00
2019-03-16T12:46:43.010Z,5.73
2019-03-16T12:49:10.533Z,5.37
2019-03-16T12:51:37.968Z,7.57
2019-03-16T12:54:05.398Z,7.50
2019-03-16T12:56:32.640Z,5.50
2019-03-16T12:59:09.850Z,5.33
2019-03-16T13:01:29.107Z,4.50
2019-03-16T13:03:56.494Z,8.37
2019-03-16T13:06:23.594Z,3.57
2019-03-16T13:08:50.875Z,4.17
2019-03-16T13:11:20.446Z,3.23
2019-03-16T13:13:47.530Z,2.77
2019-03-16T13:16:37.107Z,2.80
2019-03-16T13:19:03.610Z,3.63
2019-03-16T13:21:31.491Z,6.43
2019-03-16T13:23:58.698Z,4.83
2019-03-16T13:26:25.725Z,2.90
2019-03-16T13:28:52.765Z,1.70
2019-03-16T13:31:20.026Z,5.00
2019-03-16T13:34:06.826Z,2.43
2019-03-16T13:36:34.224Z,2.87
2019-03-16T13:39:01.319Z,3.63
2019-03-16T13:46:48.456Z,4.00
2019-03-16T13:49:15.964Z,4.37
2019-03-16T13:51:43.059Z,4.60
2019-03-16T13:54:10.373Z,3.50
2019-03-16T13:56:37.764Z,4.93
2019-03-16T13:59:04.837Z,5.10
2019-03-16T14:01:33.997Z,2.90
2019-03-16T14:04:03.048Z,3.70
2019-03-16T14:06:30.216Z,3.50
2019-03-16T14:08:57.514Z,4.27
2019-03-16T14:11:25.183Z,4.00
2019-03-16T14:13:52.403Z,3.30
2019-03-16T14:16:20.115Z,3.33
2019-03-16T14:18:47.332Z,4.97
2019-03-16T14:21:14.840Z,4.57
2019-03-16T14:23:42.096Z,4.63
2019-03-16T14:26:09.314Z,4.60
2019-03-16T14:28:36.680Z,3.63
2019-03-16T14:31:04.165Z,3.43
2019-03-16T14:33:31.948Z,3.73
2019-03-16T14:35:59.551Z,4.83
2019-03-16T14:38:26.588Z,4.80
2019-03-16T14:41:13.623Z,3.60
2019-03-16T14:43:40.883Z,3.20
2019-03-16T14:46:08.070Z,3.00
2019-03-16T14:48:35.294Z,3.90
2019-03-16T14:51:24.703Z,3.13
2019-03-16T14:53:51.218Z,4.27
2019-03-16T14:56:17.976Z,3.40
2019-03-16T14:58:44.848Z,6.53
2019-03-16T15:01:13.274Z,5.13
2019-03-16T15:03:40.878Z,5.03
2019-03-16T15:06:07.875Z,5.53
2019-03-16T15:08:34.870Z,4.70
2019-03-16T15:11:02.044Z,5.60
2019-03-16T15:13:29.555Z,5.50
2019-03-16T15:16:15.912Z,5.20
2019-03-16T15:18:44.961Z,4.77
2019-03-16T15:21:11.694Z,4.10
2019-03-16T15:23:38.643Z,5.23
2019-03-16T15:26:05.279Z,3.90
2019-03-16T15:28:32.097Z,5.83
2019-03-16T15:30:59.167Z,4.67
2019-03-16T15:33:25.899Z,6.37
2019-03-16T15:35:52.790Z,5.03
2019-03-16T15:38:19.693Z,5.70
2019-03-16T15:40:46.721Z,6.50
2019-03-16T15:43:13.583Z,6.90
2019-03-16T15:46:00.366Z,6.87
2019-03-16T15:48:27.461Z,7.63
2019-03-16T15:50:54.863Z,7.40
2019-03-16T15:53:22.012Z,7.50
2019-03-16T15:55:49.395Z,8.57
2019-03-16T15:58:16.479Z,9.50
2019-03-16T16:00:43.640Z,8.63
2019-03-16T16:03:11.383Z,8.40
2019-03-16T16:05:38.464Z,9.57
2019-03-16T16:08:05.682Z,8.60
2019-03-16T16:10:32.866Z,10.30
2019-03-16T16:13:00.339Z,10.40
2019-03-16T16:15:27.494Z,10.07
2019-03-16T16:17:54.543Z,10.40
2019-03-16T16:20:22.130Z,10.97
2019-03-16T16:22:49.453Z,11.70
2019-03-16T16:25:16.546Z,11.90
2019-03-16T16:27:43.788Z,10.60
2019-03-16T16:30:11.716Z,10.53
2019-03-16T16:32:39.109Z,11.50
2019-03-16T16:35:06.411Z,14.43
2019-03-16T16:37:33.596Z,13.27
2019-03-16T16:40:00.813Z,13.97
2019-03-16T16:42:28.106Z,16.47
2019-03-16T16:44:55.670Z,15.40
2019-03-16T16:47:22.801Z,14.30
2019-03-16T16:49:49.967Z,13.97
2019-03-16T16:52:17.121Z,15.80
2019-03-16T16:54:44.236Z,14.30
2019-03-16T16:57:11.721Z,15.93
2019-03-16T16:59:39.256Z,15.37
2019-03-16T17:02:06.355Z,14.53
2019-03-16T17:04:33.458Z,16.60
2019-03-16T17:07:00.719Z,17.17
2019-03-16T17:09:27.882Z,18.07
2019-03-16T17:11:54.992Z,17.27
2019-03-16T17:14:22.148Z,17.00
2019-03-16T17:16:49.238Z,18.13
2019-03-16T17:19:16.346Z,17.53
2019-03-16T17:21:44.015Z,18.60
2019-03-16T17:24:11.443Z,15.50
2019-03-16T17:26:39.033Z,17.17
2019-03-16T17:29:06.382Z,16.80
2019-03-16T17:31:42.109Z,18.80
2019-03-16T17:34:02.591Z,16.13
2019-03-16T17:36:29.931Z,17.93
2019-03-16T17:38:56.821Z,18.70
2019-03-16T17:41:23.562Z,19.40
2019-03-16T17:43:50.708Z,19.57
2019-03-16T17:46:17.449Z,22.57
2019-03-16T17:48:44.331Z,20.60
2019-03-16T17:51:11.182Z,20.63
2019-03-16T17:53:38.235Z,21.60
2019-03-16T17:56:25.159Z,20.43
2019-03-16T17:58:52.679Z,23.13
2019-03-16T18:01:19.790Z,21.73
2019-03-16T18:03:47.011Z,20.80
2019-03-16T18:06:14.538Z,21.37
2019-03-16T18:08:41.637Z,22.13
2019-03-16T18:11:08.880Z,19.90
2019-03-16T18:13:36.303Z,21.03
2019-03-16T18:16:03.685Z,24.60
2019-03-16T18:18:31.028Z,23.90
2019-03-16T18:20:58.139Z,21.33
2019-03-16T18:23:25.254Z,23.33
2019-03-16T18:25:52.679Z,24.73
2019-03-16T18:28:19.800Z,26.20
2019-03-16T18:30:47.074Z,26.47
2019-03-16T18:33:14.404Z,27.10
2019-03-16T18:35:41.520Z,24.87
2019-03-16T18:38:08.641Z,27.37
2019-03-16T18:40:36.244Z,26.63
2019-03-16T18:43:03.412Z,26.37
2019-03-16T18:45:30.833Z,23.40
2019-03-16T18:47:58.434Z,26.23
2019-03-16T18:50:25.542Z,25.00
2019-03-16T18:52:52.847Z,26.20
2019-03-16T18:55:20.297Z,22.27
2019-03-16T18:57:47.387Z,23.70
2019-03-16T19:00:14.457Z,24.70
2019-03-16T19:02:41.657Z,23.43
2019-03-16T19:05:08.783Z,23.77
2019-03-16T19:07:36.442Z,23.10
2019-03-16T19:10:04.125Z,25.50
2019-03-16T19:12:31.668Z,20.23
2019-03-16T19:14:58.808Z,24.30
2019-03-16T19:17:25.975Z,21.20
2019-03-16T19:19:53.118Z,21.67
2019-03-16T19:22:20.207Z,22.40
2019-03-16T19:24:47.355Z,18.43
2019-03-16T19:27:14.473Z,18.70
2019-03-16T19:29:41.631Z,18.10
2019-03-16T19:32:08.870Z,19.23
2019-03-16T19:34:35.984Z,20.33
2019-03-16T19:39:57.506Z,17.43
2019-03-16T19:42:37.079Z,18.90
2019-03-16T19:45:04.486Z,15.80
2019-03-16T19:47:31.298Z,18.33
2019-03-16T19:49:58.610Z,17.97
2019-03-16T19:52:26.416Z,14.30
2019-03-16T19:54:53.641Z,13.13
2019-03-16T19:57:20.815Z,12.43
2019-03-16T19:59:47.984Z,11.83
2019-03-16T20:02:14.727Z,12.07
2019-03-16T20:04:41.593Z,12.73
2019-03-16T20:07:18.773Z,10.13
2019-03-16T20:09:38.085Z,15.00
2019-03-16T20:12:24.470Z,10.00
2019-03-16T20:14:51.413Z,10.73
2019-03-16T20:17:19.210Z,11.23
2019-03-16T20:19:46.242Z,9.27
2019-03-16T20:22:13.770Z,9.93
2019-03-16T20:24:40.403Z,9.20
2019-03-16T20:27:08.666Z,8.57
2019-03-16T20:29:36.038Z,7.47
2019-03-16T20:32:02.936Z,5.70
2019-03-16T20:34:32.110Z,5.20
2019-03-16T20:36:58.861Z,6.63
2019-03-16T20:39:25.588Z,10.27
2019-03-16T20:41:52.362Z,5.63
2019-03-16T20:44:19.546Z,5.80
2019-03-16T20:46:46.505Z,6.13
2019-03-16T20:49:15.046Z,6.37
2019-03-16T20:51:41.904Z,5.10
2019-03-16T20:54:08.826Z,5.23
2019-03-16T20:56:35.736Z,5.50
2019-03-16T20:59:02.842Z,5.83
2019-03-16T21:01:29.611Z,5.87
2019-03-16T21:03:58.435Z,5.07
2019-03-16T21:06:25.698Z,5.43
2019-03-16T21:09:02.595Z,4.50
2019-03-16T21:11:22.238Z,5.77
2019-03-16T21:13:49.521Z,4.53
2019-03-16T21:16:17.459Z,3.57
2019-03-16T21:18:44.750Z,4.00
2019-03-16T21:21:12.477Z,4.80
2019-03-16T21:23:59.444Z,4.00
2019-03-16T21:26:26.260Z,3.80
2019-03-16T21:28:53.050Z,3.50
2019-03-16T21:31:20.258Z,6.10
2019-03-16T21:33:47.395Z,4.03
2019-03-16T21:36:14.850Z,4.40
2019-03-16T21:38:43.841Z,4.00
2019-03-16T21:41:10.745Z,4.00
2019-03-16T21:43:39.065Z,5.13
2019-03-16T21:46:06.271Z,5.07
2019-03-16T21:48:34.506Z,4.37
2019-03-16T21:51:01.451Z,5.87
2019-03-16T21:53:28.659Z,3.13
2019-03-16T21:55:55.665Z,4.20
2019-03-16T21:58:22.983Z,3.97
2019-03-16T22:00:50.934Z,11.77
2019-03-16T22:03:17.649Z,3.53
2019-03-16T22:05:44.366Z,3.43
2019-03-16T22:08:11.154Z,4.70
2019-03-16T22:10:38.017Z,4.77
2019-03-16T22:13:05.133Z,3.50
2019-03-16T22:15:31.982Z,4.17
2019-03-16T22:17:58.603Z,5.70
2019-03-16T22:20:25.485Z,4.63
2019-03-16T22:22:52.349Z,5.10
2019-03-16T22:25:19.099Z,3.50
2019-03-16T22:27:46.112Z,4.50
2019-03-16T22:30:13.337Z,3.93
2019-03-16T22:32:40.349Z,4.33
2019-03-16T22:35:09.117Z,4.20
2019-03-16T22:37:36.156Z,5.07
2019-03-16T22:40:03.452Z,4.47
2019-03-16T22:42:31.146Z,4.50
2019-03-16T22:44:58.290Z,4.83
2019-03-16T22:47:25.463Z,5.60
2019-03-16T22:49:52.774Z,6.17
2019-03-16T22:52:19.904Z,5.53
2019-03-16T22:54:47.015Z,5.33
2019-03-16T22:57:14.310Z,5.10
2019-03-16T22:59:41.918Z,5.97
2019-03-16T23:02:09.229Z,4.90
2019-03-16T23:04:36.654Z,6.73
2019-03-16T23:07:03.868Z,6.60
2019-03-16T23:09:30.973Z,4.30
2019-03-16T23:11:58.102Z,4.50
2019-03-16T23:14:25.447Z,5.40
2019-03-16T23:16:52.565Z,4.63
2019-03-16T23:19:19.986Z,6.40
2019-03-16T23:21:47.709Z,6.67
2019-03-16T23:24:14.794Z,6.20
2019-03-16T23:26:42.295Z,5.13
2019-03-16T23:29:09.465Z,6.47
2019-03-16T23:31:37.024Z,6.33
2019-03-16T23:34:04.132Z,4.40
2019-03-16T23:36:31.352Z,6.17
2019-03-16T23:38:58.475Z,5.67
2019-03-16T23:41:25.595Z,6.73
2019-03-16T23:43:53.316Z,4.93
2019-03-16T23:46:20.449Z,3.63
2019-03-16T23:49:00.317Z,4.77
2019-03-16T23:51:27.061Z,6.03
2019-03-16T23:53:53.807Z,5.17
2019-03-16T23:56:20.596Z,4.60
2019-03-16T23:58:47.343Z,5.70
